sensor_id;sensor_type;location;lat;lon;timestamp;P1;durP1;ratioP1;P2;durP2;ratioP2
61840;SDS011;47773;53.174;6.614;2023-08-20T00:01:56;10.68;;;3.63;;
61840;SDS011;47773;53.174;6.614;2023-08-20T00:04:24;10.65;;;3.63;;
61840;SDS011;47773;53.174;6.614;2023-08-20T00:06:52;16.45;;;4.00;;
61840;SDS011;47773;53.174;6.614;2023-08-20T00:09:18;14.65;;;3.83;;
61840;SDS011;47773;53.174;6.614;2023-08-20T00:11:43;12.70;;;3.95;;
61840;SDS011;47773;53.174;6.614;2023-08-20T00:14:15;14.18;;;3.85;;
61840;SDS011;47773;53.174;6.614;2023-08-20T00:16:41;10.65;;;3.88;;
61840;SDS011;47773;53.174;6.614;2023-08-20T00:19:08;14.68;;;3.83;;
61840;SDS011;47773;53.174;6.614;2023-08-20T00:21:34;16.20;;;4.13;;
61840;SDS011;47773;53.174;6.614;2023-08-20T00:24:00;11.27;;;3.80;;
61840;SDS011;47773;53.174;6.614;2023-08-20T00:26:26;12.57;;;3.63;;
61840;SDS011;47773;53.174;6.614;2023-08-20T00:28:52;16.75;;;4.03;;
61840;SDS011;47773;53.174;6.614;2023-08-20T00:31:18;15.20;;;4.10;;
61840;SDS011;47773;53.174;6.614;2023-08-20T00:33:44;12.88;;;3.83;;
61840;SDS011;47773;53.174;6.614;2023-08-20T00:36:10;13.25;;;3.83;;
61840;SDS011;47773;53.174;6.614;2023-08-20T00:38:35;14.73;;;4.47;;
61840;SDS011;47773;53.174;6.614;2023-08-20T00:41:01;11.48;;;4.05;;
61840;SDS011;47773;53.174;6.614;2023-08-20T00:43:27;15.20;;;4.22;;
61840;SDS011;47773;53.174;6.614;2023-08-20T00:45:52;16.17;;;4.10;;
61840;SDS011;47773;53.174;6.614;2023-08-20T00:48:18;9.70;;;4.25;;
61840;SDS011;47773;53.174;6.614;2023-08-20T00:50:44;13.05;;;4.00;;
61840;SDS011;47773;53.174;6.614;2023-08-20T00:53:10;16.08;;;4.85;;
61840;SDS011;47773;53.174;6.614;2023-08-20T00:55:38;13.30;;;4.32;;
61840;SDS011;47773;53.174;6.614;2023-08-20T00:58:04;14.73;;;4.50;;
61840;SDS011;47773;53.174;6.614;2023-08-20T01:00:30;16.92;;;5.07;;
61840;SDS011;47773;53.174;6.614;2023-08-20T01:02:55;15.48;;;4.38;;
61840;SDS011;47773;53.174;6.614;2023-08-20T01:05:21;14.15;;;4.45;;
61840;SDS011;47773;53.174;6.614;2023-08-20T01:10:42;12.32;;;3.75;;
61840;SDS011;47773;53.174;6.614;2023-08-20T01:13:19;12.98;;;4.20;;
61840;SDS011;47773;53.174;6.614;2023-08-20T01:15:45;10.10;;;3.72;;
61840;SDS011;47773;53.174;6.614;2023-08-20T01:18:11;13.82;;;4.32;;
61840;SDS011;47773;53.174;6.614;2023-08-20T01:20:39;17.45;;;4.85;;
61840;SDS011;47773;53.174;6.614;2023-08-20T01:28:28;19.15;;;4.53;;
61840;SDS011;47773;53.174;6.614;2023-08-20T01:30:59;13.40;;;4.28;;
61840;SDS011;47773;53.174;6.614;2023-08-20T01:33:26;12.88;;;4.63;;
61840;SDS011;47773;53.174;6.614;2023-08-20T01:35:52;16.58;;;5.20;;
61840;SDS011;47773;53.174;6.614;2023-08-20T01:38:19;15.57;;;4.90;;
61840;SDS011;47773;53.174;6.614;2023-08-20T01:40:46;15.32;;;4.75;;
61840;SDS011;47773;53.174;6.614;2023-08-20T01:43:12;13.55;;;4.93;;
61840;SDS011;47773;53.174;6.614;2023-08-20T01:45:37;13.60;;;4.93;;
61840;SDS011;47773;53.174;6.614;2023-08-20T01:48:03;15.13;;;5.03;;
61840;SDS011;47773;53.174;6.614;2023-08-20T01:50:29;17.27;;;5.07;;
61840;SDS011;47773;53.174;6.614;2023-08-20T01:52:55;17.15;;;5.18;;
61840;SDS011;47773;53.174;6.614;2023-08-20T01:55:21;12.63;;;5.32;;
61840;SDS011;47773;53.174;6.614;2023-08-20T01:57:46;18.92;;;5.30;;
61840;SDS011;47773;53.174;6.614;2023-08-20T02:00:12;19.73;;;5.60;;
61840;SDS011;47773;53.174;6.614;2023-08-20T02:02:38;14.63;;;5.28;;
61840;SDS011;47773;53.174;6.614;2023-08-20T02:05:04;19.02;;;5.10;;
61840;SDS011;47773;53.174;6.614;2023-08-20T02:07:30;15.70;;;5.47;;
61840;SDS011;47773;53.174;6.614;2023-08-20T02:09:55;19.40;;;5.70;;
61840;SDS011;47773;53.174;6.614;2023-08-20T02:12:21;16.00;;;5.25;;
61840;SDS011;47773;53.174;6.614;2023-08-20T02:14:47;17.27;;;5.68;;
61840;SDS011;47773;53.174;6.614;2023-08-20T02:17:13;17.88;;;5.95;;
61840;SDS011;47773;53.174;6.614;2023-08-20T02:19:39;24.08;;;6.35;;
61840;SDS011;47773;53.174;6.614;2023-08-20T02:22:05;16.70;;;5.60;;
61840;SDS011;47773;53.174;6.614;2023-08-20T02:24:30;18.58;;;6.00;;
61840;SDS011;47773;53.174;6.614;2023-08-20T02:26:56;15.63;;;6.03;;
61840;SDS011;47773;53.174;6.614;2023-08-20T02:29:22;11.52;;;5.75;;
61840;SDS011;47773;53.174;6.614;2023-08-20T02:31:48;16.30;;;6.75;;
61840;SDS011;47773;53.174;6.614;2023-08-20T02:34:13;20.13;;;6.70;;
61840;SDS011;47773;53.174;6.614;2023-08-20T02:36:39;23.83;;;7.32;;
61840;SDS011;47773;53.174;6.614;2023-08-20T02:39:05;19.20;;;7.50;;
61840;SDS011;47773;53.174;6.614;2023-08-20T02:41:35;18.85;;;7.55;;
61840;SDS011;47773;53.174;6.614;2023-08-20T02:44:01;22.23;;;6.68;;
61840;SDS011;47773;53.174;6.614;2023-08-20T02:46:28;19.77;;;7.20;;
61840;SDS011;47773;53.174;6.614;2023-08-20T02:48:54;20.77;;;7.30;;
61840;SDS011;47773;53.174;6.614;2023-08-20T02:51:19;22.23;;;7.45;;
61840;SDS011;47773;53.174;6.614;2023-08-20T02:53:45;18.83;;;7.75;;
61840;SDS011;47773;53.174;6.614;2023-08-20T02:56:11;21.95;;;8.93;;
61840;SDS011;47773;53.174;6.614;2023-08-20T02:58:36;16.52;;;7.47;;
61840;SDS011;47773;53.174;6.614;2023-08-20T03:01:02;27.02;;;7.65;;
61840;SDS011;47773;53.174;6.614;2023-08-20T03:03:27;20.42;;;8.50;;
61840;SDS011;47773;53.174;6.614;2023-08-20T03:05:53;16.60;;;7.85;;
61840;SDS011;47773;53.174;6.614;2023-08-20T03:08:19;28.25;;;8.48;;
61840;SDS011;47773;53.174;6.614;2023-08-20T03:10:44;24.33;;;8.45;;
61840;SDS011;47773;53.174;6.614;2023-08-20T03:13:10;21.10;;;8.85;;
61840;SDS011;47773;53.174;6.614;2023-08-20T03:15:36;27.27;;;9.35;;
61840;SDS011;47773;53.174;6.614;2023-08-20T03:18:02;22.13;;;9.60;;
61840;SDS011;47773;53.174;6.614;2023-08-20T03:20:28;31.92;;;9.25;;
61840;SDS011;47773;53.174;6.614;2023-08-20T03:22:56;21.25;;;8.63;;
61840;SDS011;47773;53.174;6.614;2023-08-20T03:25:22;25.48;;;8.38;;
61840;SDS011;47773;53.174;6.614;2023-08-20T03:27:47;24.13;;;9.18;;
61840;SDS011;47773;53.174;6.614;2023-08-20T03:30:14;26.08;;;8.82;;
61840;SDS011;47773;53.174;6.614;2023-08-20T03:32:40;18.88;;;8.70;;
61840;SDS011;47773;53.174;6.614;2023-08-20T03:35:05;25.48;;;8.60;;
61840;SDS011;47773;53.174;6.614;2023-08-20T03:37:31;19.52;;;8.02;;
61840;SDS011;47773;53.174;6.614;2023-08-20T03:39:57;25.50;;;8.73;;
61840;SDS011;47773;53.174;6.614;2023-08-20T03:42:23;19.77;;;8.02;;
61840;SDS011;47773;53.174;6.614;2023-08-20T03:44:48;22.05;;;8.32;;
61840;SDS011;47773;53.174;6.614;2023-08-20T03:47:14;20.45;;;8.00;;
61840;SDS011;47773;53.174;6.614;2023-08-20T03:49:40;24.42;;;8.65;;
61840;SDS011;47773;53.174;6.614;2023-08-20T03:52:06;23.15;;;8.43;;
61840;SDS011;47773;53.174;6.614;2023-08-20T03:54:32;24.42;;;8.30;;
61840;SDS011;47773;53.174;6.614;2023-08-20T03:56:58;24.27;;;7.82;;
61840;SDS011;47773;53.174;6.614;2023-08-20T03:59:24;20.52;;;7.85;;
61840;SDS011;47773;53.174;6.614;2023-08-20T04:01:50;21.65;;;7.72;;
61840;SDS011;47773;53.174;6.614;2023-08-20T04:04:15;19.90;;;7.90;;
61840;SDS011;47773;53.174;6.614;2023-08-20T04:06:41;23.20;;;7.63;;
61840;SDS011;47773;53.174;6.614;2023-08-20T04:09:07;23.48;;;8.32;;
61840;SDS011;47773;53.174;6.614;2023-08-20T04:11:34;17.70;;;7.43;;
61840;SDS011;47773;53.174;6.614;2023-08-20T04:14:00;19.27;;;7.63;;
61840;SDS011;47773;53.174;6.614;2023-08-20T04:16:26;21.70;;;7.90;;
61840;SDS011;47773;53.174;6.614;2023-08-20T04:18:53;27.38;;;8.10;;
61840;SDS011;47773;53.174;6.614;2023-08-20T04:21:18;16.73;;;7.63;;
61840;SDS011;47773;53.174;6.614;2023-08-20T04:23:44;20.05;;;8.02;;
61840;SDS011;47773;53.174;6.614;2023-08-20T04:26:10;19.55;;;7.80;;
61840;SDS011;47773;53.174;6.614;2023-08-20T04:28:35;23.67;;;7.80;;
61840;SDS011;47773;53.174;6.614;2023-08-20T04:31:01;22.67;;;8.25;;
61840;SDS011;47773;53.174;6.614;2023-08-20T04:33:27;27.77;;;8.30;;
61840;SDS011;47773;53.174;6.614;2023-08-20T04:35:53;17.98;;;6.85;;
61840;SDS011;47773;53.174;6.614;2023-08-20T04:38:18;18.55;;;7.35;;
61840;SDS011;47773;53.174;6.614;2023-08-20T04:40:47;19.38;;;7.88;;
61840;SDS011;47773;53.174;6.614;2023-08-20T04:43:14;21.45;;;8.35;;
61840;SDS011;47773;53.174;6.614;2023-08-20T04:45:40;24.88;;;7.88;;
61840;SDS011;47773;53.174;6.614;2023-08-20T04:48:07;17.98;;;7.88;;
61840;SDS011;47773;53.174;6.614;2023-08-20T04:50:32;20.25;;;7.70;;
61840;SDS011;47773;53.174;6.614;2023-08-20T04:52:58;19.85;;;7.53;;
61840;SDS011;47773;53.174;6.614;2023-08-20T04:55:25;21.85;;;7.68;;
61840;SDS011;47773;53.174;6.614;2023-08-20T04:57:53;20.75;;;7.82;;
61840;SDS011;47773;53.174;6.614;2023-08-20T05:00:19;17.38;;;7.95;;
61840;SDS011;47773;53.174;6.614;2023-08-20T05:02:46;14.80;;;7.85;;
61840;SDS011;47773;53.174;6.614;2023-08-20T05:05:11;20.02;;;7.60;;
61840;SDS011;47773;53.174;6.614;2023-08-20T05:07:37;26.45;;;8.18;;
61840;SDS011;47773;53.174;6.614;2023-08-20T05:10:03;19.80;;;8.18;;
61840;SDS011;47773;53.174;6.614;2023-08-20T05:12:29;20.38;;;7.78;;
61840;SDS011;47773;53.174;6.614;2023-08-20T05:14:55;24.27;;;8.00;;
61840;SDS011;47773;53.174;6.614;2023-08-20T05:17:20;16.90;;;7.97;;
61840;SDS011;47773;53.174;6.614;2023-08-20T05:19:46;22.48;;;8.15;;
61840;SDS011;47773;53.174;6.614;2023-08-20T05:22:12;20.80;;;8.32;;
61840;SDS011;47773;53.174;6.614;2023-08-20T05:24:38;29.77;;;8.68;;
61840;SDS011;47773;53.174;6.614;2023-08-20T05:27:13;19.80;;;8.45;;
61840;SDS011;47773;53.174;6.614;2023-08-20T05:29:41;20.77;;;8.20;;
61840;SDS011;47773;53.174;6.614;2023-08-20T05:32:07;28.55;;;8.30;;
61840;SDS011;47773;53.174;6.614;2023-08-20T05:34:33;24.80;;;8.73;;
61840;SDS011;47773;53.174;6.614;2023-08-20T05:36:59;19.13;;;8.57;;
61840;SDS011;47773;53.174;6.614;2023-08-20T05:39:25;23.30;;;8.52;;
61840;SDS011;47773;53.174;6.614;2023-08-20T05:41:52;19.90;;;9.07;;
61840;SDS011;47773;53.174;6.614;2023-08-20T05:44:18;28.65;;;8.88;;
61840;SDS011;47773;53.174;6.614;2023-08-20T05:46:44;20.52;;;8.07;;
61840;SDS011;47773;53.174;6.614;2023-08-20T05:49:11;25.02;;;9.20;;
61840;SDS011;47773;53.174;6.614;2023-08-20T05:51:38;27.02;;;9.00;;
61840;SDS011;47773;53.174;6.614;2023-08-20T05:54:04;23.58;;;8.48;;
61840;SDS011;47773;53.174;6.614;2023-08-20T05:56:29;25.02;;;8.07;;
61840;SDS011;47773;53.174;6.614;2023-08-20T05:58:55;22.02;;;8.82;;
61840;SDS011;47773;53.174;6.614;2023-08-20T06:01:21;22.45;;;8.77;;
61840;SDS011;47773;53.174;6.614;2023-08-20T06:03:46;14.52;;;7.55;;
61840;SDS011;47773;53.174;6.614;2023-08-20T06:06:12;20.65;;;8.02;;
61840;SDS011;47773;53.174;6.614;2023-08-20T06:08:38;28.50;;;8.10;;
61840;SDS011;47773;53.174;6.614;2023-08-20T06:11:03;20.50;;;7.93;;
61840;SDS011;47773;53.174;6.614;2023-08-20T06:13:29;21.83;;;8.25;;
61840;SDS011;47773;53.174;6.614;2023-08-20T06:15:55;19.65;;;7.57;;
61840;SDS011;47773;53.174;6.614;2023-08-20T06:18:20;20.98;;;7.95;;
61840;SDS011;47773;53.174;6.614;2023-08-20T06:20:46;22.63;;;8.48;;
61840;SDS011;47773;53.174;6.614;2023-08-20T06:23:11;26.75;;;7.80;;
61840;SDS011;47773;53.174;6.614;2023-08-20T06:25:38;25.17;;;8.07;;
61840;SDS011;47773;53.174;6.614;2023-08-20T06:28:04;24.02;;;7.75;;
61840;SDS011;47773;53.174;6.614;2023-08-20T06:30:29;16.23;;;7.10;;
61840;SDS011;47773;53.174;6.614;2023-08-20T06:32:55;23.92;;;7.70;;
61840;SDS011;47773;53.174;6.614;2023-08-20T06:35:21;20.73;;;7.28;;
61840;SDS011;47773;53.174;6.614;2023-08-20T06:37:46;22.75;;;6.90;;
61840;SDS011;47773;53.174;6.614;2023-08-20T06:40:12;24.50;;;6.78;;
61840;SDS011;47773;53.174;6.614;2023-08-20T06:42:39;25.33;;;7.13;;
61840;SDS011;47773;53.174;6.614;2023-08-20T06:45:04;23.38;;;7.72;;
61840;SDS011;47773;53.174;6.614;2023-08-20T06:47:31;20.08;;;6.90;;
61840;SDS011;47773;53.174;6.614;2023-08-20T06:49:56;20.92;;;6.93;;
61840;SDS011;47773;53.174;6.614;2023-08-20T06:52:22;18.80;;;6.15;;
61840;SDS011;47773;53.174;6.614;2023-08-20T06:54:48;18.77;;;6.47;;
61840;SDS011;47773;53.174;6.614;2023-08-20T06:57:13;19.35;;;5.50;;
61840;SDS011;47773;53.174;6.614;2023-08-20T06:59:39;19.45;;;6.10;;
61840;SDS011;47773;53.174;6.614;2023-08-20T07:02:05;21.27;;;5.80;;
61840;SDS011;47773;53.174;6.614;2023-08-20T07:04:30;17.27;;;5.82;;
61840;SDS011;47773;53.174;6.614;2023-08-20T07:06:58;33.03;;;5.28;;
61840;SDS011;47773;53.174;6.614;2023-08-20T07:09:24;21.05;;;4.78;;
61840;SDS011;47773;53.174;6.614;2023-08-20T07:11:49;21.83;;;4.80;;
61840;SDS011;47773;53.174;6.614;2023-08-20T07:14:15;24.05;;;4.95;;
61840;SDS011;47773;53.174;6.614;2023-08-20T07:16:41;16.75;;;4.80;;
61840;SDS011;47773;53.174;6.614;2023-08-20T07:19:06;22.00;;;5.05;;
61840;SDS011;47773;53.174;6.614;2023-08-20T07:21:32;26.00;;;4.32;;
61840;SDS011;47773;53.174;6.614;2023-08-20T07:23:58;22.70;;;4.78;;
61840;SDS011;47773;53.174;6.614;2023-08-20T07:26:23;18.08;;;4.20;;
61840;SDS011;47773;53.174;6.614;2023-08-20T07:28:49;18.30;;;4.43;;
61840;SDS011;47773;53.174;6.614;2023-08-20T07:33:57;19.83;;;4.55;;
61840;SDS011;47773;53.174;6.614;2023-08-20T07:36:24;19.33;;;3.85;;
61840;SDS011;47773;53.174;6.614;2023-08-20T07:38:51;18.23;;;3.38;;
61840;SDS011;47773;53.174;6.614;2023-08-20T07:41:18;16.15;;;3.20;;
61840;SDS011;47773;53.174;6.614;2023-08-20T07:43:45;26.25;;;3.50;;
61840;SDS011;47773;53.174;6.614;2023-08-20T07:46:11;23.60;;;3.65;;
61840;SDS011;47773;53.174;6.614;2023-08-20T07:48:37;17.38;;;3.38;;
61840;SDS011;47773;53.174;6.614;2023-08-20T07:51:03;12.90;;;3.00;;
61840;SDS011;47773;53.174;6.614;2023-08-20T07:53:30;22.45;;;3.30;;
61840;SDS011;47773;53.174;6.614;2023-08-20T07:55:56;22.15;;;3.22;;
61840;SDS011;47773;53.174;6.614;2023-08-20T07:58:21;17.27;;;2.95;;
61840;SDS011;47773;53.174;6.614;2023-08-20T08:00:47;17.42;;;2.85;;
61840;SDS011;47773;53.174;6.614;2023-08-20T08:03:13;16.98;;;3.25;;
61840;SDS011;47773;53.174;6.614;2023-08-20T08:05:45;20.50;;;3.17;;
61840;SDS011;47773;53.174;6.614;2023-08-20T08:08:19;14.20;;;2.55;;
61840;SDS011;47773;53.174;6.614;2023-08-20T08:10:45;13.13;;;2.85;;
61840;SDS011;47773;53.174;6.614;2023-08-20T08:13:12;16.23;;;3.10;;
61840;SDS011;47773;53.174;6.614;2023-08-20T08:15:39;19.70;;;2.92;;
61840;SDS011;47773;53.174;6.614;2023-08-20T08:18:05;18.27;;;2.60;;
61840;SDS011;47773;53.174;6.614;2023-08-20T08:20:31;20.77;;;3.40;;
61840;SDS011;47773;53.174;6.614;2023-08-20T08:22:57;15.10;;;2.22;;
61840;SDS011;47773;53.174;6.614;2023-08-20T08:25:22;17.63;;;2.60;;
61840;SDS011;47773;53.174;6.614;2023-08-20T08:27:48;18.42;;;2.90;;
61840;SDS011;47773;53.174;6.614;2023-08-20T08:30:14;17.02;;;2.55;;
61840;SDS011;47773;53.174;6.614;2023-08-20T08:32:40;18.52;;;2.42;;
61840;SDS011;47773;53.174;6.614;2023-08-20T08:35:06;15.32;;;2.08;;
61840;SDS011;47773;53.174;6.614;2023-08-20T08:37:32;14.93;;;2.42;;
61840;SDS011;47773;53.174;6.614;2023-08-20T08:39:57;19.05;;;2.40;;
61840;SDS011;47773;53.174;6.614;2023-08-20T08:42:23;20.27;;;2.75;;
61840;SDS011;47773;53.174;6.614;2023-08-20T08:44:49;19.00;;;2.80;;
61840;SDS011;47773;53.174;6.614;2023-08-20T08:47:16;21.05;;;2.97;;
61840;SDS011;47773;53.174;6.614;2023-08-20T08:49:43;13.80;;;2.20;;
61840;SDS011;47773;53.174;6.614;2023-08-20T08:52:11;15.75;;;2.25;;
61840;SDS011;47773;53.174;6.614;2023-08-20T08:54:38;21.75;;;2.35;;
61840;SDS011;47773;53.174;6.614;2023-08-20T08:57:04;8.68;;;1.98;;
61840;SDS011;47773;53.174;6.614;2023-08-20T08:59:30;16.17;;;2.40;;
61840;SDS011;47773;53.174;6.614;2023-08-20T09:01:56;15.65;;;2.03;;
61840;SDS011;47773;53.174;6.614;2023-08-20T09:04:24;15.63;;;1.88;;
61840;SDS011;47773;53.174;6.614;2023-08-20T09:06:51;11.88;;;2.13;;
61840;SDS011;47773;53.174;6.614;2023-08-20T09:09:18;20.02;;;2.47;;
61840;SDS011;47773;53.174;6.614;2023-08-20T09:11:45;11.88;;;1.90;;
61840;SDS011;47773;53.174;6.614;2023-08-20T09:14:23;12.60;;;1.50;;
61840;SDS011;47773;53.174;6.614;2023-08-20T09:17:01;10.63;;;1.58;;
61840;SDS011;47773;53.174;6.614;2023-08-20T09:19:34;12.68;;;1.83;;
61840;SDS011;47773;53.174;6.614;2023-08-20T09:22:04;12.13;;;1.92;;
61840;SDS011;47773;53.174;6.614;2023-08-20T09:24:33;14.90;;;2.10;;
61840;SDS011;47773;53.174;6.614;2023-08-20T09:27:03;10.70;;;1.75;;
61840;SDS011;47773;53.174;6.614;2023-08-20T09:30:13;12.80;;;1.95;;
61840;SDS011;47773;53.174;6.614;2023-08-20T09:32:21;10.23;;;1.83;;
61840;SDS011;47773;53.174;6.614;2023-08-20T09:34:49;11.07;;;2.10;;
61840;SDS011;47773;53.174;6.614;2023-08-20T09:37:15;14.43;;;2.25;;
61840;SDS011;47773;53.174;6.614;2023-08-20T09:39:44;15.15;;;2.30;;
61840;SDS011;47773;53.174;6.614;2023-08-20T09:42:10;12.30;;;2.03;;
61840;SDS011;47773;53.174;6.614;2023-08-20T09:44:37;13.02;;;1.95;;
61840;SDS011;47773;53.174;6.614;2023-08-20T09:47:10;15.30;;;1.90;;
61840;SDS011;47773;53.174;6.614;2023-08-20T09:49:45;11.18;;;1.90;;
61840;SDS011;47773;53.174;6.614;2023-08-20T09:52:15;11.60;;;1.80;;
61840;SDS011;47773;53.174;6.614;2023-08-20T09:57:33;12.20;;;2.00;;
61840;SDS011;47773;53.174;6.614;2023-08-20T10:00:02;12.43;;;1.90;;
61840;SDS011;47773;53.174;6.614;2023-08-20T10:02:36;9.98;;;1.60;;
61840;SDS011;47773;53.174;6.614;2023-08-20T10:05:06;11.68;;;1.83;;
61840;SDS011;47773;53.174;6.614;2023-08-20T10:07:34;12.38;;;1.70;;
61840;SDS011;47773;53.174;6.614;2023-08-20T10:10:02;9.00;;;1.73;;
61840;SDS011;47773;53.174;6.614;2023-08-20T10:12:29;11.30;;;1.83;;
61840;SDS011;47773;53.174;6.614;2023-08-20T10:14:56;12.07;;;1.60;;
61840;SDS011;47773;53.174;6.614;2023-08-20T10:17:23;11.00;;;2.17;;
61840;SDS011;47773;53.174;6.614;2023-08-20T10:19:49;9.30;;;1.75;;
61840;SDS011;47773;53.174;6.614;2023-08-20T10:22:16;12.57;;;2.08;;
61840;SDS011;47773;53.174;6.614;2023-08-20T10:24:46;9.30;;;1.70;;
61840;SDS011;47773;53.174;6.614;2023-08-20T10:27:24;8.35;;;1.88;;
61840;SDS011;47773;53.174;6.614;2023-08-20T10:29:56;8.10;;;1.63;;
61840;SDS011;47773;53.174;6.614;2023-08-20T10:35:23;11.65;;;2.25;;
61840;SDS011;47773;53.174;6.614;2023-08-20T10:38:02;8.57;;;1.70;;
61840;SDS011;47773;53.174;6.614;2023-08-20T10:43:27;10.88;;;1.95;;
61840;SDS011;47773;53.174;6.614;2023-08-20T10:48:31;5.43;;;1.50;;
61840;SDS011;47773;53.174;6.614;2023-08-20T10:51:05;6.40;;;1.63;;
61840;SDS011;47773;53.174;6.614;2023-08-20T10:53:35;5.32;;;1.42;;
61840;SDS011;47773;53.174;6.614;2023-08-20T10:56:07;7.43;;;1.67;;
61840;SDS011;47773;53.174;6.614;2023-08-20T10:58:38;8.55;;;1.45;;
61840;SDS011;47773;53.174;6.614;2023-08-20T11:01:22;7.63;;;1.42;;
61840;SDS011;47773;53.174;6.614;2023-08-20T11:03:49;9.55;;;1.58;;
61840;SDS011;47773;53.174;6.614;2023-08-20T11:06:16;10.07;;;1.88;;
61840;SDS011;47773;53.174;6.614;2023-08-20T11:08:43;9.45;;;2.03;;
61840;SDS011;47773;53.174;6.614;2023-08-20T11:11:09;6.05;;;1.67;;
61840;SDS011;47773;53.174;6.614;2023-08-20T11:13:36;9.05;;;1.85;;
61840;SDS011;47773;53.174;6.614;2023-08-20T11:16:02;7.57;;;1.35;;
61840;SDS011;47773;53.174;6.614;2023-08-20T11:18:30;9.60;;;1.80;;
61840;SDS011;47773;53.174;6.614;2023-08-20T11:20:57;7.95;;;1.42;;
61840;SDS011;47773;53.174;6.614;2023-08-20T11:23:23;7.63;;;1.38;;
61840;SDS011;47773;53.174;6.614;2023-08-20T11:25:50;6.57;;;1.20;;
61840;SDS011;47773;53.174;6.614;2023-08-20T11:28:16;5.85;;;1.40;;
61840;SDS011;47773;53.174;6.614;2023-08-20T11:30:42;12.05;;;1.67;;
61840;SDS011;47773;53.174;6.614;2023-08-20T11:33:08;9.02;;;1.42;;
61840;SDS011;47773;53.174;6.614;2023-08-20T11:35:34;8.73;;;1.33;;
61840;SDS011;47773;53.174;6.614;2023-08-20T11:38:00;8.50;;;1.55;;
61840;SDS011;47773;53.174;6.614;2023-08-20T11:40:27;9.82;;;1.65;;
61840;SDS011;47773;53.174;6.614;2023-08-20T11:42:53;10.05;;;2.00;;
61840;SDS011;47773;53.174;6.614;2023-08-20T11:45:19;8.02;;;1.50;;
61840;SDS011;47773;53.174;6.614;2023-08-20T11:47:44;5.95;;;1.45;;
61840;SDS011;47773;53.174;6.614;2023-08-20T11:50:10;8.30;;;1.50;;
61840;SDS011;47773;53.174;6.614;2023-08-20T11:52:36;8.25;;;1.55;;
61840;SDS011;47773;53.174;6.614;2023-08-20T11:55:04;11.07;;;1.73;;
61840;SDS011;47773;53.174;6.614;2023-08-20T11:57:31;8.73;;;1.33;;
61840;SDS011;47773;53.174;6.614;2023-08-20T12:00:01;8.20;;;1.05;;
61840;SDS011;47773;53.174;6.614;2023-08-20T12:02:34;8.00;;;1.15;;
61840;SDS011;47773;53.174;6.614;2023-08-20T12:05:00;10.88;;;1.50;;
61840;SDS011;47773;53.174;6.614;2023-08-20T12:07:26;9.32;;;1.50;;
61840;SDS011;47773;53.174;6.614;2023-08-20T12:09:52;7.70;;;1.40;;
61840;SDS011;47773;53.174;6.614;2023-08-20T12:12:19;7.03;;;1.10;;
61840;SDS011;47773;53.174;6.614;2023-08-20T12:14:46;7.53;;;1.10;;
61840;SDS011;47773;53.174;6.614;2023-08-20T12:17:12;9.25;;;1.52;;
61840;SDS011;47773;53.174;6.614;2023-08-20T12:19:41;6.88;;;1.50;;
61840;SDS011;47773;53.174;6.614;2023-08-20T12:22:07;10.20;;;1.08;;
61840;SDS011;47773;53.174;6.614;2023-08-20T12:24:33;9.07;;;1.27;;
61840;SDS011;47773;53.174;6.614;2023-08-20T12:26:59;8.25;;;1.20;;
61840;SDS011;47773;53.174;6.614;2023-08-20T12:29:25;9.60;;;1.08;;
61840;SDS011;47773;53.174;6.614;2023-08-20T12:31:50;8.00;;;1.52;;
61840;SDS011;47773;53.174;6.614;2023-08-20T12:34:16;6.07;;;0.65;;
61840;SDS011;47773;53.174;6.614;2023-08-20T12:36:42;6.60;;;0.98;;
61840;SDS011;47773;53.174;6.614;2023-08-20T12:39:08;8.65;;;1.02;;
61840;SDS011;47773;53.174;6.614;2023-08-20T12:41:33;6.43;;;1.27;;
61840;SDS011;47773;53.174;6.614;2023-08-20T12:44:01;5.80;;;1.05;;
61840;SDS011;47773;53.174;6.614;2023-08-20T12:46:27;8.85;;;1.30;;
61840;SDS011;47773;53.174;6.614;2023-08-20T12:48:53;12.55;;;1.55;;
61840;SDS011;47773;53.174;6.614;2023-08-20T12:51:18;7.28;;;1.60;;
61840;SDS011;47773;53.174;6.614;2023-08-20T12:53:44;7.32;;;1.52;;
61840;SDS011;47773;53.174;6.614;2023-08-20T12:56:10;8.93;;;1.30;;
61840;SDS011;47773;53.174;6.614;2023-08-20T12:58:37;9.70;;;1.70;;
61840;SDS011;47773;53.174;6.614;2023-08-20T13:01:02;9.40;;;1.40;;
61840;SDS011;47773;53.174;6.614;2023-08-20T13:03:28;11.38;;;1.42;;
61840;SDS011;47773;53.174;6.614;2023-08-20T13:05:54;5.90;;;1.13;;
61840;SDS011;47773;53.174;6.614;2023-08-20T13:08:23;8.07;;;1.27;;
61840;SDS011;47773;53.174;6.614;2023-08-20T13:10:50;6.32;;;1.05;;
61840;SDS011;47773;53.174;6.614;2023-08-20T13:15:48;6.40;;;1.00;;
61840;SDS011;47773;53.174;6.614;2023-08-20T13:18:15;5.78;;;1.10;;
61840;SDS011;47773;53.174;6.614;2023-08-20T13:20:41;10.07;;;1.13;;
61840;SDS011;47773;53.174;6.614;2023-08-20T13:23:08;7.18;;;1.20;;
61840;SDS011;47773;53.174;6.614;2023-08-20T13:25:34;6.30;;;1.20;;
61840;SDS011;47773;53.174;6.614;2023-08-20T13:28:00;6.85;;;1.30;;
61840;SDS011;47773;53.174;6.614;2023-08-20T13:30:25;7.88;;;1.70;;
61840;SDS011;47773;53.174;6.614;2023-08-20T13:32:51;5.32;;;1.20;;
61840;SDS011;47773;53.174;6.614;2023-08-20T13:35:17;9.75;;;1.15;;
61840;SDS011;47773;53.174;6.614;2023-08-20T13:37:43;9.27;;;1.23;;
61840;SDS011;47773;53.174;6.614;2023-08-20T13:40:09;5.45;;;1.10;;
61840;SDS011;47773;53.174;6.614;2023-08-20T13:42:35;7.68;;;0.93;;
61840;SDS011;47773;53.174;6.614;2023-08-20T13:45:01;5.90;;;1.02;;
61840;SDS011;47773;53.174;6.614;2023-08-20T13:47:28;7.32;;;1.10;;
61840;SDS011;47773;53.174;6.614;2023-08-20T13:49:54;8.23;;;1.60;;
61840;SDS011;47773;53.174;6.614;2023-08-20T13:52:20;6.25;;;1.20;;
61840;SDS011;47773;53.174;6.614;2023-08-20T13:54:45;6.05;;;1.13;;
61840;SDS011;47773;53.174;6.614;2023-08-20T13:57:11;7.18;;;0.88;;
61840;SDS011;47773;53.174;6.614;2023-08-20T13:59:37;5.40;;;0.90;;
61840;SDS011;47773;53.174;6.614;2023-08-20T14:02:03;6.38;;;1.05;;
61840;SDS011;47773;53.174;6.614;2023-08-20T14:04:29;6.43;;;1.02;;
61840;SDS011;47773;53.174;6.614;2023-08-20T14:06:55;6.75;;;1.15;;
61840;SDS011;47773;53.174;6.614;2023-08-20T14:09:21;5.07;;;1.05;;
61840;SDS011;47773;53.174;6.614;2023-08-20T14:11:46;8.15;;;1.00;;
61840;SDS011;47773;53.174;6.614;2023-08-20T14:14:12;6.22;;;0.82;;
61840;SDS011;47773;53.174;6.614;2023-08-20T14:16:38;6.75;;;1.05;;
61840;SDS011;47773;53.174;6.614;2023-08-20T14:19:04;4.30;;;0.90;;
61840;SDS011;47773;53.174;6.614;2023-08-20T14:21:29;5.40;;;1.00;;
61840;SDS011;47773;53.174;6.614;2023-08-20T14:23:55;7.95;;;1.10;;
61840;SDS011;47773;53.174;6.614;2023-08-20T14:26:21;7.43;;;1.10;;
61840;SDS011;47773;53.174;6.614;2023-08-20T14:28:46;5.68;;;0.75;;
61840;SDS011;47773;53.174;6.614;2023-08-20T14:31:12;11.35;;;1.58;;
61840;SDS011;47773;53.174;6.614;2023-08-20T14:33:38;7.80;;;1.20;;
61840;SDS011;47773;53.174;6.614;2023-08-20T14:36:03;11.85;;;1.48;;
61840;SDS011;47773;53.174;6.614;2023-08-20T14:38:29;5.03;;;0.88;;
61840;SDS011;47773;53.174;6.614;2023-08-20T14:41:02;7.88;;;1.10;;
61840;SDS011;47773;53.174;6.614;2023-08-20T14:43:28;8.00;;;1.00;;
61840;SDS011;47773;53.174;6.614;2023-08-20T14:45:54;5.18;;;1.05;;
61840;SDS011;47773;53.174;6.614;2023-08-20T14:48:21;7.90;;;1.30;;
61840;SDS011;47773;53.174;6.614;2023-08-20T14:50:47;3.25;;;0.80;;
61840;SDS011;47773;53.174;6.614;2023-08-20T14:53:13;5.25;;;0.93;;
61840;SDS011;47773;53.174;6.614;2023-08-20T14:55:39;5.45;;;1.20;;
61840;SDS011;47773;53.174;6.614;2023-08-20T14:58:05;9.40;;;1.33;;
61840;SDS011;47773;53.174;6.614;2023-08-20T15:00:33;5.53;;;1.17;;